Airfield :
LOGIN :

Register | Disclaimer

   EN    FR    IT 

 










Legend :    VFR   Marginal VFR   IFR   Intensive IFR   Very Intensive IFR
Visi :
Ceiling :
>= 8 km
>= 3000ft
5 to 8 km
1000 to 3000 ft
1500m to 5 km
500 to 1000 ft
800 to 1500m
200 to 500 ft
< 800m
< 200 ft
Symbols :   Thunderstorms  Fog  Heavy snow  Heavy precipitations  Wind > 20 kt
SIGMETs :     Misc.  Thunderstorms  Icing  Turbulence  Mountain Waves  Volcanic Ashes







- Airport Elevation : 154 ft
- IATA code : SZZ


EPSC - Szczecin Goleniow

CURRENT METAR :
  • 301400Z 16006KT 8000 FEW008 BKN010 BKN014 12/10 Q1023

EXPIRED METARs :
  • 301330Z 16007KT 8000 FEW006 OVC008 11/10 Q1023
  • 301300Z 17007KT 8000 BKN005 OVC007 11/10 Q1024
  • 301230Z 17008KT 8000 BKN006 OVC008 11/09 Q1024
  • 301200Z 16009KT 8000 SCT006 OVC007 10/09 Q1024
  • 301130Z 16007KT 9999 BKN007 OVC010 11/08 Q1024

TAF TAF EPSC
Valid from the 30 at 12:00 until the 31 at 12:00 UTC


301130Z 3012/3112 20006KT 6000 BKN009
TEMPO 3012/3020 2500 DZ BR BKN003
BECMG 3020/3023 SCT030
No reported NOTAMs for that airfield.



MET'MAP, your aeronautical weather chart ! - Copyright ORBIFLY December 2007 - Disclaimer

ORBIFLY MET'MAP TEAM :

Programming & Development : Alexandra Zaïnal
Concept & Development : Baudouin d'Aumeries
Co-Development & Prog : Marc-Olivier Méhu
Technical & hardware support : Manuel Goepfert

Contact : metmap@orbifly.com




SOURCES & CREDITS :

   NOAA